Terminal Aerodrome Forecast
Issued by NWS

Home | Current Version | Previous Version | Text Only | Print | Product List | Glossary On
Versions: 1 2 3 4 5 6 7 8 9 10 11 12 13 14
000
FTUS42 TJSJ 011724
TAFJBQ
TAF
TJBQ 011724Z 0118/0218 08018G25KT P6SM VCSH SCT024 SCT029
     FM011900 09015G23KT P6SM VCTS SCT025CB BKN040
     FM012200 10008KT P6SM FEW025
     FM021330 08016KT P6SM SCT030=

USA.gov is the U.S. government's official web portal to all federal, state and local government web resources and services.